createdAt,value
2019-04-16T00:01:21.133Z,44.70
2019-04-16T00:03:55.500Z,45.50
2019-04-16T00:06:46.788Z,46.00
2019-04-16T00:09:34.732Z,46.20
2019-04-16T00:12:26.044Z,46.00
2019-04-16T00:14:55.932Z,46.50
2019-04-16T00:17:25.350Z,46.90
2019-04-16T00:19:56.143Z,46.90
2019-04-16T00:22:31.718Z,46.90
2019-04-16T00:25:01.076Z,47.20
2019-04-16T00:27:31.537Z,47.90
2019-04-16T00:30:19.952Z,47.70
2019-04-16T00:33:10.681Z,47.70
2019-04-16T00:38:54.148Z,47.60
2019-04-16T00:41:43.059Z,47.90
2019-04-16T00:47:40.542Z,48.20
2019-04-16T00:50:28.953Z,47.80
2019-04-16T00:59:05.222Z,48.60
2019-04-16T01:01:53.620Z,48.60
2019-04-16T01:10:22.956Z,50.00
2019-04-16T01:13:04.303Z,49.80
2019-04-16T01:15:44.927Z,50.00
2019-04-16T01:18:25.768Z,50.50
2019-04-16T01:21:06.566Z,50.80
2019-04-16T01:23:49.370Z,50.80
2019-04-16T01:26:30.532Z,50.70
2019-04-16T01:29:13.230Z,51.40
2019-04-16T01:32:12.815Z,51.40
2019-04-16T01:35:13.045Z,51.50
2019-04-16T01:38:10.776Z,52.20
2019-04-16T01:40:57.072Z,51.90
2019-04-16T01:43:37.908Z,51.90
2019-04-16T01:46:19.412Z,51.90
2019-04-16T01:49:00.283Z,52.90
2019-04-16T01:51:29.670Z,53.10
2019-04-16T01:53:59.045Z,53.00
2019-04-16T01:56:29.103Z,54.30
2019-04-16T01:58:58.630Z,53.90
2019-04-16T02:01:27.976Z,53.70
2019-04-16T02:03:57.388Z,54.20
2019-04-16T02:06:26.702Z,53.90
2019-04-16T02:08:56.121Z,54.30
2019-04-16T02:11:25.499Z,54.60
2019-04-16T02:13:54.834Z,55.00
2019-04-16T02:16:25.230Z,55.40
2019-04-16T02:18:55.347Z,55.90
2019-04-16T02:21:24.668Z,56.30
2019-04-16T02:23:53.969Z,57.10
2019-04-16T02:26:24.132Z,57.00
2019-04-16T02:28:53.679Z,57.20
2019-04-16T02:31:24.713Z,57.20
2019-04-16T02:33:54.101Z,57.70
2019-04-16T02:36:23.440Z,58.30
2019-04-16T02:38:53.668Z,59.30
2019-04-16T02:41:24.424Z,59.70
2019-04-16T02:43:54.051Z,60.30
2019-04-16T02:46:23.399Z,60.50
2019-04-16T02:48:52.715Z,61.60
2019-04-16T02:51:41.348Z,62.60
2019-04-16T02:54:34.023Z,63.50
2019-04-16T02:57:18.634Z,64.40
2019-04-16T02:59:48.422Z,64.30
2019-04-16T03:02:53.614Z,64.90
2019-04-16T03:05:41.602Z,67.00
2019-04-16T03:08:10.902Z,67.00
2019-04-16T03:10:41.760Z,69.60
2019-04-16T03:13:11.467Z,69.70
2019-04-16T03:15:58.280Z,71.10
2019-04-16T03:18:46.939Z,73.90
2019-04-16T03:21:14.739Z,74.80
2019-04-16T03:23:44.084Z,74.70
2019-04-16T03:26:16.387Z,76.50
2019-04-16T03:28:44.472Z,78.50
2019-04-16T03:31:20.333Z,79.40
2019-04-16T03:33:50.497Z,82.40
2019-04-16T03:36:15.892Z,82.90
2019-04-16T03:38:45.203Z,85.10
2019-04-16T03:41:14.682Z,86.90
2019-04-16T03:43:44.098Z,89.10
2019-04-16T03:46:14.161Z,90.30
2019-04-16T03:48:43.755Z,91.20
2019-04-16T03:51:13.101Z,92.10
2019-04-16T03:53:42.437Z,93.00
2019-04-16T03:56:11.788Z,93.70
2019-04-16T03:58:41.159Z,94.00
2019-04-16T04:01:10.528Z,94.40
2019-04-16T04:03:39.901Z,95.00
2019-04-16T04:06:09.428Z,95.90
2019-04-16T04:08:39.115Z,96.50
2019-04-16T04:11:10.171Z,97.70
2019-04-16T04:13:39.533Z,98.60
2019-04-16T04:16:09.284Z,98.90
2019-04-16T04:18:42.953Z,98.80
2019-04-16T04:21:09.763Z,99.00
2019-04-16T04:23:45.503Z,99.80
2019-04-16T04:26:14.844Z,99.90
2019-04-16T04:28:44.223Z,99.90
2019-04-16T04:31:13.512Z,99.90
2019-04-16T04:33:43.183Z,99.90
2019-04-16T04:36:12.644Z,99.90
2019-04-16T04:38:41.948Z,99.90
2019-04-16T04:41:11.280Z,99.90
2019-04-16T04:43:40.589Z,99.90
2019-04-16T04:46:14.493Z,99.90
2019-04-16T04:48:41.127Z,99.90
2019-04-16T04:51:10.514Z,99.90
2019-04-16T04:53:39.874Z,99.90
2019-04-16T04:56:09.638Z,99.90
2019-04-16T04:58:39.011Z,99.90
2019-04-16T05:01:12.041Z,99.90
2019-04-16T05:03:56.250Z,99.90
2019-04-16T05:06:28.845Z,99.90
2019-04-16T05:09:00.385Z,99.90
2019-04-16T05:11:29.303Z,99.90
2019-04-16T05:13:58.662Z,99.90
2019-04-16T05:16:27.980Z,99.90
2019-04-16T05:18:57.319Z,99.90
2019-04-16T05:21:26.715Z,98.70
2019-04-16T05:23:57.587Z,96.00
2019-04-16T05:26:27.163Z,93.60
2019-04-16T05:28:58.103Z,90.50
2019-04-16T05:31:27.461Z,86.40
2019-04-16T05:34:00.628Z,83.00
2019-04-16T05:36:27.865Z,80.60
2019-04-16T05:38:57.493Z,79.00
2019-04-16T05:41:26.839Z,77.10
2019-04-16T05:44:00.834Z,75.20
2019-04-16T05:46:27.531Z,74.00
2019-04-16T05:48:56.875Z,74.50
2019-04-16T05:51:28.507Z,74.30
2019-04-16T05:53:59.767Z,73.70
2019-04-16T05:56:36.998Z,73.40
2019-04-16T05:59:06.494Z,72.60
2019-04-16T06:01:46.307Z,70.50
2019-04-16T06:04:15.746Z,66.90
2019-04-16T06:06:45.081Z,62.30
2019-04-16T06:09:14.773Z,57.80
2019-04-16T06:11:44.336Z,53.20
2019-04-16T06:14:31.893Z,48.80
2019-04-16T06:17:25.449Z,45.30
2019-04-16T06:20:00.081Z,42.90
2019-04-16T06:22:48.356Z,40.60
2019-04-16T06:25:51.813Z,38.50
2019-04-16T06:28:38.316Z,36.60
2019-04-16T06:31:26.659Z,34.60
2019-04-16T06:34:13.364Z,33.30
2019-04-16T06:37:04.484Z,32.20
2019-04-16T06:40:04.735Z,30.90
2019-04-16T06:42:54.103Z,29.30
2019-04-16T06:45:37.985Z,28.80
2019-04-16T06:48:13.058Z,28.40
2019-04-16T06:51:00.303Z,27.20
2019-04-16T06:53:44.652Z,27.20
2019-04-16T06:56:32.920Z,26.60
2019-04-16T06:59:08.399Z,25.90
2019-04-16T07:02:10.554Z,25.30
2019-04-16T07:05:04.729Z,24.90
2019-04-16T07:07:47.159Z,24.60
2019-04-16T07:10:18.897Z,24.70
2019-04-16T07:12:48.313Z,24.00
2019-04-16T07:15:22.809Z,24.30
2019-04-16T07:17:48.941Z,24.40
2019-04-16T07:20:18.270Z,24.90
2019-04-16T07:22:52.648Z,25.00
2019-04-16T07:25:19.136Z,24.80
2019-04-16T07:27:58.440Z,24.50
2019-04-16T07:30:46.740Z,24.00
2019-04-16T07:33:34.384Z,23.60
2019-04-16T07:36:12.612Z,24.00
2019-04-16T07:38:59.935Z,24.40
2019-04-16T07:41:51.283Z,24.40
2019-04-16T07:44:45.352Z,24.70
2019-04-16T07:47:52.505Z,25.10
2019-04-16T07:50:40.830Z,24.70
2019-04-16T07:53:20.736Z,24.20
2019-04-16T07:55:52.526Z,23.90
2019-04-16T07:58:21.921Z,24.20
2019-04-16T08:00:51.349Z,24.20
2019-04-16T08:03:23.643Z,24.10
2019-04-16T08:05:51.765Z,24.00
2019-04-16T08:08:24.316Z,23.70
2019-04-16T08:10:52.197Z,23.30
2019-04-16T08:13:22.490Z,23.40
2019-04-16T08:15:51.832Z,23.70
2019-04-16T08:18:21.228Z,23.20
2019-04-16T08:21:01.223Z,23.60
2019-04-16T08:23:42.869Z,23.90
2019-04-16T08:26:13.812Z,24.20
2019-04-16T08:28:43.319Z,24.20
2019-04-16T08:31:19.190Z,24.30
2019-04-16T08:33:48.588Z,24.10
2019-04-16T08:36:17.968Z,23.60
2019-04-16T08:38:47.308Z,23.60
2019-04-16T08:41:21.166Z,24.00
2019-04-16T08:43:47.867Z,24.20
2019-04-16T08:46:17.222Z,23.80
2019-04-16T08:48:49.243Z,23.50
2019-04-16T08:51:29.712Z,23.50
2019-04-16T08:53:48.880Z,23.90
2019-04-16T08:56:18.288Z,24.10
2019-04-16T08:58:47.613Z,23.60
2019-04-16T09:01:23.346Z,23.70
2019-04-16T09:03:51.075Z,23.70
2019-04-16T09:06:22.339Z,23.80
2019-04-16T09:09:24.336Z,23.90
2019-04-16T09:11:55.010Z,23.60
2019-04-16T09:14:25.896Z,23.40
2019-04-16T09:17:20.188Z,23.00
2019-04-16T09:20:09.943Z,23.50
2019-04-16T09:22:48.994Z,23.40
2019-04-16T09:25:28.128Z,23.00
2019-04-16T09:28:07.273Z,22.50
2019-04-16T09:30:52.421Z,22.70
2019-04-16T09:33:43.747Z,22.70
2019-04-16T09:36:38.526Z,22.40
2019-04-16T09:39:21.180Z,22.10
2019-04-16T09:41:52.109Z,21.90
2019-04-16T09:44:21.484Z,21.60
2019-04-16T09:46:52.154Z,21.40
2019-04-16T09:49:21.788Z,21.40
2019-04-16T09:51:51.297Z,21.50
2019-04-16T09:54:20.741Z,21.60
2019-04-16T09:56:50.099Z,21.70
2019-04-16T09:59:33.109Z,21.80
2019-04-16T10:02:12.117Z,21.70
2019-04-16T10:04:41.517Z,21.20
2019-04-16T10:07:10.825Z,20.90
2019-04-16T10:09:40.191Z,20.60
2019-04-16T10:12:09.648Z,20.30
2019-04-16T10:14:39.029Z,20.80
2019-04-16T10:17:08.433Z,20.30
2019-04-16T10:19:42.950Z,20.20
2019-04-16T10:22:08.937Z,20.20
2019-04-16T10:24:55.766Z,20.10
2019-04-16T10:27:39.575Z,20.40
2019-04-16T10:30:21.906Z,21.20
2019-04-16T10:32:51.406Z,21.10
2019-04-16T10:35:20.778Z,21.10
2019-04-16T10:37:50.157Z,21.30
2019-04-16T10:40:27.517Z,22.00
2019-04-16T10:43:16.140Z,21.60
2019-04-16T10:46:09.484Z,22.00
2019-04-16T10:48:51.484Z,22.30
2019-04-16T10:51:34.110Z,22.50
2019-04-16T10:54:16.670Z,22.50
2019-04-16T10:57:06.605Z,22.40
2019-04-16T10:59:38.869Z,21.90
2019-04-16T11:02:38.944Z,21.70
2019-04-16T11:05:33.748Z,22.50
2019-04-16T11:08:04.257Z,23.30
2019-04-16T11:10:34.894Z,24.50
2019-04-16T11:13:06.080Z,25.50
2019-04-16T11:15:35.876Z,25.90
2019-04-16T11:18:05.913Z,25.80
2019-04-16T11:20:35.276Z,25.60
2019-04-16T11:23:07.036Z,25.80
2019-04-16T11:25:35.916Z,26.40
2019-04-16T11:28:05.377Z,26.70
2019-04-16T11:30:37.553Z,26.90
2019-04-16T11:33:07.002Z,26.60
2019-04-16T11:35:36.405Z,26.30
2019-04-16T11:38:05.902Z,26.10
2019-04-16T11:40:35.347Z,26.20
2019-04-16T11:43:04.892Z,26.20
2019-04-16T11:45:34.323Z,25.90
2019-04-16T11:48:03.746Z,25.80
2019-04-16T11:50:36.029Z,25.50
2019-04-16T11:53:04.279Z,26.20
2019-04-16T11:55:33.659Z,26.00
2019-04-16T11:58:04.447Z,25.70
2019-04-16T12:00:53.750Z,25.90
2019-04-16T12:03:37.484Z,25.90
2019-04-16T12:06:28.437Z,26.00
2019-04-16T12:09:12.799Z,26.00
2019-04-16T12:11:50.457Z,25.90
2019-04-16T12:14:32.213Z,26.20
2019-04-16T12:17:03.913Z,26.60
2019-04-16T12:19:55.365Z,26.10
2019-04-16T12:22:31.797Z,26.60
2019-04-16T12:25:23.157Z,26.70
2019-04-16T12:28:20.609Z,27.00
2019-04-16T12:31:07.347Z,27.50
2019-04-16T12:34:02.128Z,27.60
2019-04-16T12:36:53.437Z,27.70
2019-04-16T12:39:47.853Z,28.10
2019-04-16T12:42:24.604Z,28.50
2019-04-16T12:45:00.698Z,28.20
2019-04-16T12:47:40.648Z,28.40
2019-04-16T12:50:17.440Z,28.70
2019-04-16T12:53:00.712Z,28.70
2019-04-16T12:55:51.857Z,29.30
2019-04-16T12:58:50.639Z,29.10
2019-04-16T13:01:28.001Z,29.50
2019-04-16T13:04:01.791Z,29.50
2019-04-16T13:06:59.368Z,29.90
2019-04-16T13:09:53.655Z,30.20
2019-04-16T13:12:38.021Z,30.00
2019-04-16T13:15:31.538Z,30.50
2019-04-16T13:18:07.134Z,29.80
2019-04-16T13:21:05.817Z,29.90
2019-04-16T13:23:54.599Z,29.80
2019-04-16T13:26:32.373Z,30.20
2019-04-16T13:29:05.028Z,30.40
2019-04-16T13:31:36.398Z,29.60
2019-04-16T13:34:05.694Z,29.70
2019-04-16T13:36:35.067Z,30.10
2019-04-16T13:39:23.488Z,30.20
2019-04-16T13:41:52.949Z,30.50
2019-04-16T13:44:24.113Z,31.20
2019-04-16T13:46:53.505Z,31.60
2019-04-16T13:49:31.714Z,31.60
2019-04-16T13:52:01.751Z,31.30
2019-04-16T13:54:52.744Z,30.90
2019-04-16T13:57:22.950Z,30.90
2019-04-16T14:00:04.946Z,31.20
2019-04-16T14:02:52.056Z,30.60
2019-04-16T14:05:21.623Z,30.40
2019-04-16T14:07:51.044Z,30.90
2019-04-16T14:10:20.550Z,30.70
2019-04-16T14:12:50.047Z,32.00
2019-04-16T14:15:31.644Z,31.60
2019-04-16T14:17:53.300Z,32.10
2019-04-16T14:20:22.580Z,31.80
2019-04-16T14:22:53.575Z,31.20
2019-04-16T14:25:23.087Z,31.50
2019-04-16T14:27:55.476Z,32.10
2019-04-16T14:30:28.040Z,31.80
2019-04-16T14:32:57.456Z,31.60
2019-04-16T14:35:33.359Z,31.00
2019-04-16T14:37:59.778Z,31.10
2019-04-16T14:40:29.916Z,32.00
2019-04-16T14:42:59.242Z,32.40
2019-04-16T14:45:57.466Z,32.20
2019-04-16T14:48:16.897Z,32.00
2019-04-16T14:50:46.227Z,31.70
2019-04-16T14:53:28.260Z,31.80
2019-04-16T14:56:02.486Z,32.40
2019-04-16T14:58:45.941Z,31.60
2019-04-16T15:01:46.111Z,32.20
2019-04-16T15:04:27.189Z,31.80
2019-04-16T15:07:13.865Z,31.60
2019-04-16T15:10:10.039Z,31.40
2019-04-16T15:13:04.344Z,31.70
2019-04-16T15:15:39.531Z,31.90
2019-04-16T15:18:26.927Z,31.80
2019-04-16T15:21:21.184Z,31.80
2019-04-16T15:24:07.914Z,32.30
2019-04-16T15:27:01.068Z,32.60
2019-04-16T15:29:42.699Z,32.50
2019-04-16T15:32:39.757Z,32.70
2019-04-16T15:35:14.139Z,32.90
2019-04-16T15:37:57.996Z,32.70
2019-04-16T15:40:33.460Z,32.70
2019-04-16T15:43:31.277Z,32.80
2019-04-16T15:46:26.037Z,33.20
2019-04-16T15:49:25.921Z,33.60
2019-04-16T15:52:09.139Z,33.30
2019-04-16T15:55:07.653Z,33.00
2019-04-16T15:57:49.078Z,33.20
2019-04-16T16:00:49.473Z,33.20
2019-04-16T16:03:36.395Z,33.30
2019-04-16T16:06:12.401Z,33.50
2019-04-16T16:09:13.125Z,33.70
2019-04-16T16:12:00.391Z,34.00
2019-04-16T16:14:33.446Z,34.10
2019-04-16T16:17:00.957Z,34.10
2019-04-16T16:19:30.316Z,34.60
2019-04-16T16:21:59.639Z,34.70
2019-04-16T16:24:29.035Z,35.00
2019-04-16T16:26:58.521Z,38.30
2019-04-16T16:29:27.849Z,40.60
2019-04-16T16:31:57.229Z,41.60
2019-04-16T16:34:26.727Z,42.40
2019-04-16T16:36:56.285Z,43.00
2019-04-16T16:39:25.634Z,43.30
2019-04-16T16:41:54.973Z,43.80
2019-04-16T16:44:24.325Z,44.40
2019-04-16T16:47:15.916Z,44.50
2019-04-16T16:49:45.340Z,45.00
2019-04-16T16:52:36.653Z,45.20
2019-04-16T16:55:08.439Z,45.60
2019-04-16T16:57:43.190Z,45.70
2019-04-16T17:00:31.797Z,45.90
2019-04-16T17:03:25.631Z,46.00
2019-04-16T17:05:55.063Z,46.60
2019-04-16T17:08:27.037Z,46.90
2019-04-16T17:10:55.834Z,47.30
2019-04-16T17:13:25.306Z,47.70
2019-04-16T17:15:54.928Z,48.60
2019-04-16T17:18:24.364Z,51.10
2019-04-16T17:20:53.941Z,53.30
2019-04-16T17:23:25.565Z,54.60
2019-04-16T17:25:58.493Z,53.00
2019-04-16T17:28:26.912Z,52.50
2019-04-16T17:30:56.283Z,52.20
2019-04-16T17:33:25.712Z,52.20
2019-04-16T17:35:55.035Z,52.20
2019-04-16T17:38:24.430Z,52.00
2019-04-16T17:41:00.105Z,52.10
2019-04-16T17:44:00.532Z,52.60
2019-04-16T17:46:32.879Z,53.00
2019-04-16T17:49:08.996Z,53.50
2019-04-16T17:51:45.982Z,53.90
2019-04-16T17:54:49.451Z,55.20
2019-04-16T17:57:30.768Z,56.00
2019-04-16T18:00:37.672Z,56.70
2019-04-16T18:03:37.649Z,57.00
2019-04-16T18:06:18.384Z,56.90
2019-04-16T18:09:05.304Z,56.90
2019-04-16T18:11:44.748Z,56.90
2019-04-16T18:14:49.824Z,57.80
2019-04-16T18:17:27.981Z,58.10
2019-04-16T18:20:22.128Z,58.80
2019-04-16T18:23:09.018Z,59.50
2019-04-16T18:25:57.388Z,59.60
2019-04-16T18:28:31.162Z,60.00
2019-04-16T18:31:27.535Z,60.90
2019-04-16T18:34:10.144Z,61.90
2019-04-16T18:36:58.737Z,62.70
2019-04-16T18:39:37.445Z,63.50
2019-04-16T18:42:25.870Z,64.10
2019-04-16T18:45:32.378Z,64.30
2019-04-16T18:48:13.740Z,65.10
2019-04-16T18:50:42.876Z,66.20
2019-04-16T18:53:12.423Z,66.90
2019-04-16T18:55:41.807Z,67.50
2019-04-16T18:58:11.175Z,67.80
2019-04-16T19:00:48.274Z,68.60
2019-04-16T19:03:17.672Z,69.60
2019-04-16T19:05:47.019Z,69.70
2019-04-16T19:08:16.630Z,70.50
2019-04-16T19:10:46.202Z,71.10
2019-04-16T19:13:15.527Z,71.60
2019-04-16T19:15:44.952Z,72.10
2019-04-16T19:18:19.732Z,73.00
2019-04-16T19:20:45.442Z,74.20
2019-04-16T19:23:14.830Z,74.70
2019-04-16T19:25:44.197Z,75.20
2019-04-16T19:28:13.590Z,76.20
2019-04-16T19:30:43.057Z,76.70
2019-04-16T19:33:12.461Z,77.40
2019-04-16T19:35:41.883Z,78.00
2019-04-16T19:38:11.217Z,78.50
2019-04-16T19:40:40.640Z,79.10
2019-04-16T19:43:10.048Z,80.60
2019-04-16T19:45:40.658Z,81.00
2019-04-16T19:48:11.064Z,82.30
2019-04-16T19:50:40.462Z,84.40
2019-04-16T19:53:13.657Z,85.10
2019-04-16T19:55:45.613Z,86.80
2019-04-16T19:58:12.230Z,87.70
2019-04-16T20:00:41.825Z,88.70
2019-04-16T20:03:11.372Z,90.10
2019-04-16T20:05:40.773Z,90.50
2019-04-16T20:08:10.215Z,91.10
2019-04-16T20:10:39.535Z,92.40
2019-04-16T20:13:08.957Z,92.60
2019-04-16T20:15:43.228Z,93.10
2019-04-16T20:18:09.477Z,93.80
2019-04-16T20:20:38.868Z,94.30
2019-04-16T20:23:08.223Z,94.80
2019-04-16T20:25:37.639Z,95.20
2019-04-16T20:28:09.411Z,96.20
2019-04-16T20:30:38.146Z,96.90
2019-04-16T20:33:07.501Z,97.50
2019-04-16T20:35:36.910Z,98.40
2019-04-16T20:38:06.518Z,99.20
2019-04-16T20:40:36.047Z,98.70
2019-04-16T20:43:05.452Z,99.90
2019-04-16T20:45:34.832Z,99.90
2019-04-16T20:48:04.225Z,99.90
2019-04-16T20:50:33.560Z,99.90
2019-04-16T20:53:06.217Z,99.90
2019-04-16T20:55:34.015Z,99.90
2019-04-16T20:58:03.516Z,99.90
2019-04-16T21:00:34.054Z,99.90
2019-04-16T21:03:03.854Z,99.90
2019-04-16T21:05:35.760Z,99.90
2019-04-16T21:08:04.601Z,99.90
2019-04-16T21:10:35.644Z,99.90
2019-04-16T21:13:05.257Z,99.90
2019-04-16T21:15:34.651Z,99.90
2019-04-16T21:18:04.082Z,99.90
2019-04-16T21:20:33.507Z,99.90
2019-04-16T21:23:03.497Z,99.90
2019-04-16T21:25:33.293Z,99.90
2019-04-16T21:28:37.089Z,99.90
2019-04-16T21:31:18.241Z,99.90
2019-04-16T21:34:08.937Z,99.90
2019-04-16T21:36:57.224Z,99.90
2019-04-16T21:39:37.332Z,99.90
2019-04-16T21:42:06.691Z,99.90
2019-04-16T21:44:36.105Z,99.90
2019-04-16T21:47:05.612Z,99.90
2019-04-16T21:49:38.906Z,99.90
2019-04-16T21:52:08.839Z,99.90
2019-04-16T21:54:38.986Z,99.90
2019-04-16T21:57:09.476Z,99.90
2019-04-16T21:59:39.467Z,99.90
2019-04-16T22:02:14.455Z,99.90
2019-04-16T22:04:45.468Z,99.90
2019-04-16T22:07:14.816Z,99.90
2019-04-16T22:09:44.152Z,99.90
2019-04-16T22:12:15.433Z,99.90
2019-04-16T22:14:44.580Z,99.90
2019-04-16T22:17:13.985Z,99.90
2019-04-16T22:19:53.812Z,99.90
2019-04-16T22:22:15.774Z,99.90
2019-04-16T22:24:45.134Z,99.90
2019-04-16T22:27:14.505Z,99.90
2019-04-16T22:29:47.315Z,99.90
2019-04-16T22:32:14.984Z,99.90
2019-04-16T22:34:44.366Z,99.90
2019-04-16T22:37:13.746Z,99.90
2019-04-16T22:40:10.630Z,99.90
2019-04-16T22:42:49.225Z,99.90
2019-04-16T22:45:31.476Z,99.90
2019-04-16T22:48:01.014Z,99.90
2019-04-16T22:50:30.363Z,99.90
2019-04-16T22:52:59.689Z,99.90
2019-04-16T22:55:29.044Z,99.90
2019-04-16T22:57:59.853Z,99.90
2019-04-16T23:00:44.487Z,99.90
2019-04-16T23:03:13.572Z,99.90
2019-04-16T23:05:42.932Z,99.90
2019-04-16T23:08:13.075Z,99.90
2019-04-16T23:10:42.479Z,99.90
2019-04-16T23:13:11.812Z,99.90
2019-04-16T23:15:42.031Z,99.90
2019-04-16T23:18:11.456Z,99.90
2019-04-16T23:20:43.657Z,99.90
2019-04-16T23:23:17.868Z,99.90
2019-04-16T23:25:44.101Z,99.90
2019-04-16T23:28:13.394Z,99.90
2019-04-16T23:30:43.121Z,99.90
2019-04-16T23:33:12.476Z,99.90
2019-04-16T23:35:44.297Z,99.90
2019-04-16T23:38:12.882Z,99.90
2019-04-16T23:40:43.845Z,99.90
2019-04-16T23:43:23.976Z,99.90
2019-04-16T23:46:15.260Z,99.90
2019-04-16T23:49:09.541Z,99.90
2019-04-16T23:51:42.784Z,99.90
2019-04-16T23:54:21.875Z,99.90
2019-04-16T23:56:58.645Z,99.90
2019-04-16T23:59:52.918Z,99.90
